createdAt,value
2022-10-09T00:00:33.906Z,0.00
2022-10-09T00:01:33.912Z,0.00
2022-10-09T00:02:33.945Z,0.00
2022-10-09T00:03:33.922Z,0.00
2022-10-09T00:04:33.841Z,0.00
2022-10-09T00:05:33.869Z,0.00
2022-10-09T00:06:33.801Z,0.00
2022-10-09T00:07:33.811Z,0.00
2022-10-09T00:08:33.782Z,0.00
2022-10-09T00:09:33.781Z,0.00
2022-10-09T00:10:33.764Z,0.00
2022-10-09T00:11:33.742Z,0.00
2022-10-09T00:12:33.744Z,0.00
2022-10-09T00:13:33.722Z,0.00
2022-10-09T00:14:33.724Z,0.00
2022-10-09T00:15:33.706Z,0.00
2022-10-09T00:16:33.752Z,0.00
2022-10-09T00:17:33.686Z,0.00
2022-10-09T00:18:33.751Z,0.00
2022-10-09T00:19:33.664Z,0.00
2022-10-09T00:20:33.651Z,0.00
2022-10-09T00:21:33.624Z,0.00
2022-10-09T00:22:33.616Z,0.00
2022-10-09T00:23:33.591Z,0.00
2022-10-09T00:24:33.595Z,0.00
2022-10-09T00:25:33.562Z,0.00
2022-10-09T00:26:33.561Z,0.00
2022-10-09T00:27:33.539Z,0.00
2022-10-09T00:28:37.825Z,0.00
2022-10-09T00:29:34.542Z,0.00
2022-10-09T00:30:33.565Z,0.00
2022-10-09T00:31:33.532Z,0.00
2022-10-09T00:32:33.480Z,0.00
2022-10-09T00:33:33.481Z,0.00
2022-10-09T00:34:33.443Z,0.00
2022-10-09T00:35:33.459Z,0.00
2022-10-09T00:36:33.421Z,0.00
2022-10-09T00:37:33.411Z,0.00
2022-10-09T00:38:33.413Z,0.00
2022-10-09T00:39:33.408Z,0.00
2022-10-09T00:40:33.385Z,0.00
2022-10-09T00:41:33.381Z,0.00
2022-10-09T00:42:33.352Z,0.00
2022-10-09T00:43:33.343Z,0.00
2022-10-09T00:44:33.327Z,0.00
2022-10-09T00:45:33.333Z,0.00
2022-10-09T00:46:33.408Z,0.00
2022-10-09T00:47:33.281Z,0.00
2022-10-09T00:48:33.292Z,0.00
2022-10-09T00:49:33.256Z,0.00
2022-10-09T00:50:33.262Z,0.00
2022-10-09T00:51:33.233Z,0.00
2022-10-09T00:52:33.220Z,0.00
2022-10-09T00:53:33.201Z,0.00
2022-10-09T00:54:33.215Z,0.00
2022-10-09T00:55:33.202Z,0.00
2022-10-09T00:56:33.173Z,0.00
2022-10-09T00:57:33.164Z,0.00
2022-10-09T00:58:33.153Z,0.00
2022-10-09T00:59:33.143Z,0.00
2022-10-09T01:00:33.126Z,0.00
2022-10-09T01:01:33.179Z,0.00
2022-10-09T01:02:33.135Z,0.00
2022-10-09T01:03:33.081Z,0.00
2022-10-09T01:04:33.062Z,0.00
2022-10-09T01:05:33.055Z,0.00
2022-10-09T01:06:33.058Z,0.00
2022-10-09T01:07:33.032Z,0.00
2022-10-09T01:08:33.016Z,0.00
2022-10-09T01:09:33.041Z,0.00
2022-10-09T01:10:32.995Z,0.00
2022-10-09T01:11:32.984Z,0.00
2022-10-09T01:12:32.963Z,0.00
2022-10-09T01:13:32.953Z,0.00
2022-10-09T01:14:32.996Z,0.00
2022-10-09T01:15:32.998Z,0.00
2022-10-09T01:16:32.924Z,0.00
2022-10-09T01:17:32.913Z,0.00
2022-10-09T01:18:32.892Z,0.00
2022-10-09T01:19:32.882Z,0.00
2022-10-09T01:20:32.859Z,0.00
2022-10-09T01:21:32.849Z,0.00
2022-10-09T01:22:32.835Z,0.00
2022-10-09T01:23:32.836Z,0.00
2022-10-09T01:24:32.810Z,0.00
2022-10-09T01:25:32.803Z,0.00
2022-10-09T01:26:33.494Z,0.00
2022-10-09T01:27:39.839Z,0.00
2022-10-09T01:28:32.807Z,0.00
2022-10-09T01:29:32.750Z,0.00
2022-10-09T01:30:32.737Z,0.00
2022-10-09T01:31:32.726Z,0.00
2022-10-09T01:32:32.700Z,0.00
2022-10-09T01:33:32.709Z,0.00
2022-10-09T01:34:32.679Z,0.00
2022-10-09T01:35:32.668Z,0.00
2022-10-09T01:36:32.666Z,0.00
2022-10-09T01:37:32.651Z,0.00
2022-10-09T01:38:32.629Z,0.00
2022-10-09T01:39:32.630Z,0.00
2022-10-09T01:40:32.592Z,0.00
2022-10-09T01:41:32.588Z,0.00
2022-10-09T01:42:32.570Z,0.00
2022-10-09T01:43:32.558Z,0.00
2022-10-09T01:44:32.547Z,0.00
2022-10-09T01:45:32.546Z,0.00
2022-10-09T01:46:32.607Z,0.00
2022-10-09T01:47:32.508Z,0.00
2022-10-09T01:48:32.510Z,0.00
2022-10-09T01:49:32.500Z,0.00
2022-10-09T01:50:32.503Z,0.00
2022-10-09T01:51:32.469Z,0.00
2022-10-09T01:52:32.460Z,0.00
2022-10-09T01:53:32.451Z,0.00
2022-10-09T01:54:32.431Z,0.00
2022-10-09T01:55:32.437Z,0.00
2022-10-09T01:56:32.388Z,0.00
2022-10-09T01:57:32.386Z,0.00
2022-10-09T01:58:32.366Z,0.00
2022-10-09T01:59:32.357Z,0.00
2022-10-09T02:00:32.350Z,0.00
2022-10-09T02:01:32.491Z,0.00
2022-10-09T02:02:32.406Z,0.00
2022-10-09T02:03:32.298Z,0.00
2022-10-09T02:04:32.300Z,0.00
2022-10-09T02:05:32.291Z,0.00
2022-10-09T02:06:32.283Z,0.00
2022-10-09T02:07:32.271Z,0.00
2022-10-09T02:08:32.240Z,0.00
2022-10-09T02:09:32.230Z,0.00
2022-10-09T02:10:32.219Z,0.00
2022-10-09T02:11:32.227Z,0.00
2022-10-09T02:12:32.189Z,0.00
2022-10-09T02:13:32.202Z,0.00
2022-10-09T02:14:32.168Z,0.00
2022-10-09T02:15:32.201Z,0.00
2022-10-09T02:16:36.811Z,0.00
2022-10-09T02:17:33.158Z,0.00
2022-10-09T02:18:32.140Z,0.00
2022-10-09T02:19:32.117Z,0.00
2022-10-09T02:20:32.090Z,0.00
2022-10-09T02:21:32.113Z,0.00
2022-10-09T02:22:32.068Z,0.00
2022-10-09T02:23:32.050Z,0.00
2022-10-09T02:24:32.039Z,0.00
2022-10-09T02:25:32.030Z,0.00
2022-10-09T02:26:32.020Z,0.00
2022-10-09T02:27:32.000Z,0.00
2022-10-09T02:28:32.049Z,0.00
2022-10-09T02:29:31.981Z,0.00
2022-10-09T02:30:31.962Z,0.00
2022-10-09T02:31:32.007Z,0.00
2022-10-09T02:32:31.949Z,0.00
2022-10-09T02:33:31.938Z,0.00
2022-10-09T02:34:31.908Z,0.00
2022-10-09T02:35:31.918Z,0.00
2022-10-09T02:36:31.890Z,0.00
2022-10-09T02:37:31.874Z,0.00
2022-10-09T02:38:31.869Z,0.00
2022-10-09T02:39:31.852Z,0.00
2022-10-09T02:40:31.845Z,0.00
2022-10-09T02:41:31.839Z,0.00
2022-10-09T02:42:31.819Z,0.00
2022-10-09T02:43:31.801Z,0.00
2022-10-09T02:44:31.786Z,0.00
2022-10-09T02:45:31.768Z,0.00
2022-10-09T02:46:31.809Z,0.00
2022-10-09T02:47:31.748Z,0.00
2022-10-09T02:48:31.736Z,0.00
2022-10-09T02:49:31.718Z,0.00
2022-10-09T02:50:31.705Z,0.00
2022-10-09T02:51:31.688Z,0.00
2022-10-09T02:52:31.700Z,0.00
2022-10-09T02:53:31.661Z,0.00
2022-10-09T02:54:31.659Z,0.00
2022-10-09T02:55:31.640Z,0.00
2022-10-09T02:56:33.621Z,0.00
2022-10-09T02:57:32.634Z,0.00
2022-10-09T02:58:31.607Z,0.00
2022-10-09T02:59:31.590Z,0.00
2022-10-09T03:00:31.589Z,0.00
2022-10-09T03:01:31.607Z,0.00
2022-10-09T03:02:31.652Z,0.00
2022-10-09T03:03:31.558Z,0.00
2022-10-09T03:04:31.529Z,0.00
2022-10-09T03:05:31.507Z,0.00
2022-10-09T03:06:31.508Z,0.00
2022-10-09T03:07:31.489Z,0.00
2022-10-09T03:08:31.500Z,0.00
2022-10-09T03:09:33.708Z,0.00
2022-10-09T03:10:31.450Z,0.00
2022-10-09T03:11:31.460Z,0.00
2022-10-09T03:12:31.509Z,0.00
2022-10-09T03:13:31.410Z,0.00
2022-10-09T03:14:31.408Z,0.00
2022-10-09T03:15:31.381Z,0.00
2022-10-09T03:16:31.456Z,0.00
2022-10-09T03:17:31.348Z,0.00
2022-10-09T03:18:31.348Z,0.00
2022-10-09T03:19:31.334Z,0.00
2022-10-09T03:20:31.318Z,0.00
2022-10-09T03:21:31.308Z,0.00
2022-10-09T03:22:31.298Z,0.00
2022-10-09T03:23:31.270Z,0.00
2022-10-09T03:24:31.277Z,0.00
2022-10-09T03:25:31.270Z,0.00
2022-10-09T03:26:31.250Z,0.00
2022-10-09T03:27:31.229Z,0.00
2022-10-09T03:28:31.315Z,0.00
2022-10-09T03:29:31.242Z,0.00
2022-10-09T03:30:31.217Z,0.00
2022-10-09T03:31:51.364Z,0.00
2022-10-09T03:32:32.238Z,0.00
2022-10-09T03:33:31.148Z,0.00
2022-10-09T03:34:31.150Z,0.00
2022-10-09T03:35:31.122Z,0.00
2022-10-09T03:36:31.115Z,0.00
2022-10-09T03:37:31.089Z,0.00
2022-10-09T03:38:31.090Z,0.00
2022-10-09T03:39:31.078Z,0.00
2022-10-09T03:40:31.090Z,0.00
2022-10-09T03:41:31.057Z,0.00
2022-10-09T03:42:31.059Z,0.00
2022-10-09T03:43:31.174Z,0.00
2022-10-09T03:44:31.013Z,0.00
2022-10-09T03:45:31.017Z,0.00
2022-10-09T03:46:31.035Z,0.00
2022-10-09T03:47:31.005Z,0.00
2022-10-09T03:48:30.967Z,0.00
2022-10-09T03:49:30.950Z,0.00
2022-10-09T03:50:30.945Z,0.00
2022-10-09T03:51:30.920Z,0.00
2022-10-09T03:52:30.909Z,0.00
2022-10-09T03:53:30.940Z,0.00
2022-10-09T03:54:30.891Z,0.00
2022-10-09T03:55:30.878Z,0.00
2022-10-09T03:56:30.870Z,0.00
2022-10-09T03:57:30.868Z,0.00
2022-10-09T03:58:30.849Z,0.00
2022-10-09T03:59:30.840Z,0.00
2022-10-09T04:00:30.879Z,0.00
2022-10-09T04:01:30.798Z,0.00
2022-10-09T04:02:30.874Z,0.00
2022-10-09T04:03:30.799Z,0.00
2022-10-09T04:04:30.770Z,0.00
2022-10-09T04:05:30.763Z,0.00
2022-10-09T04:06:30.738Z,0.00
2022-10-09T04:07:30.731Z,0.00
2022-10-09T04:08:30.710Z,0.00
2022-10-09T04:09:30.700Z,0.00
2022-10-09T04:10:30.689Z,0.00
2022-10-09T04:11:30.669Z,0.00
2022-10-09T04:12:30.658Z,0.00
2022-10-09T04:13:30.650Z,0.00
2022-10-09T04:14:30.642Z,0.00
2022-10-09T04:15:30.617Z,0.00
2022-10-09T04:16:30.695Z,0.00
2022-10-09T04:17:30.588Z,0.00
2022-10-09T04:18:30.578Z,0.00
2022-10-09T04:19:30.559Z,0.00
2022-10-09T04:20:30.570Z,0.00
2022-10-09T04:21:30.553Z,0.00
2022-10-09T04:22:30.541Z,0.00
2022-10-09T04:23:30.519Z,0.00
2022-10-09T04:24:30.520Z,0.00
2022-10-09T04:25:30.509Z,0.00
2022-10-09T04:26:30.488Z,0.00
2022-10-09T04:27:30.469Z,0.00
2022-10-09T04:28:30.507Z,0.00
2022-10-09T04:29:30.430Z,0.00
2022-10-09T04:30:30.428Z,0.00
2022-10-09T04:31:30.499Z,0.00
2022-10-09T04:32:30.398Z,0.00
2022-10-09T04:33:30.398Z,0.00
2022-10-09T04:34:30.368Z,0.00
2022-10-09T04:35:30.358Z,0.00
2022-10-09T04:36:30.360Z,0.00
2022-10-09T04:37:30.366Z,0.00
2022-10-09T04:38:30.339Z,0.00
2022-10-09T04:39:30.317Z,0.00
2022-10-09T04:40:30.337Z,0.00
2022-10-09T04:41:32.599Z,0.00
2022-10-09T04:42:31.299Z,0.00
2022-10-09T04:43:30.269Z,0.00
2022-10-09T04:44:30.247Z,0.00
2022-10-09T04:45:30.305Z,0.00
2022-10-09T04:46:30.220Z,0.00
2022-10-09T04:47:30.207Z,0.00
2022-10-09T04:48:30.224Z,0.00
2022-10-09T04:49:30.189Z,4.00
2022-10-09T04:50:30.197Z,0.00
2022-10-09T04:51:30.171Z,0.00
2022-10-09T04:52:30.138Z,4.00
2022-10-09T04:53:30.128Z,4.00
2022-10-09T04:54:30.127Z,4.00
2022-10-09T04:55:30.099Z,4.00
2022-10-09T04:56:30.098Z,4.00
2022-10-09T04:57:30.078Z,8.00
2022-10-09T04:58:30.058Z,8.00
2022-10-09T04:59:30.050Z,8.00
2022-10-09T05:00:30.058Z,12.00
2022-10-09T05:01:33.086Z,16.00
2022-10-09T05:02:31.069Z,16.00
2022-10-09T05:03:30.009Z,20.00
2022-10-09T05:04:29.999Z,24.00
2022-10-09T05:05:29.983Z,28.00
2022-10-09T05:06:29.969Z,32.00
2022-10-09T05:07:29.949Z,36.00
2022-10-09T05:08:29.927Z,44.00
2022-10-09T05:09:29.916Z,52.00
2022-10-09T05:10:29.928Z,60.00
2022-10-09T05:11:29.888Z,72.00
2022-10-09T05:12:29.878Z,80.00
2022-10-09T05:13:29.865Z,96.00
2022-10-09T05:14:29.857Z,108.00
2022-10-09T05:15:29.878Z,124.00
2022-10-09T05:16:29.866Z,140.00
2022-10-09T05:17:29.900Z,156.00
2022-10-09T05:18:29.817Z,176.00
2022-10-09T05:19:29.800Z,196.00
2022-10-09T05:20:29.781Z,220.00
2022-10-09T05:21:29.770Z,244.00
2022-10-09T05:22:29.801Z,268.00
2022-10-09T05:23:29.741Z,292.00
2022-10-09T05:24:29.756Z,324.00
2022-10-09T05:25:29.718Z,352.00
2022-10-09T05:26:29.705Z,380.00
2022-10-09T05:27:29.685Z,408.00
2022-10-09T05:28:29.729Z,448.00
2022-10-09T05:29:29.667Z,480.00
2022-10-09T05:30:29.638Z,512.00
2022-10-09T05:31:29.806Z,548.00
2022-10-09T05:32:29.639Z,580.00
2022-10-09T05:33:29.609Z,620.00
2022-10-09T05:34:29.607Z,660.00
2022-10-09T05:35:29.590Z,692.00
2022-10-09T05:36:29.577Z,728.00
2022-10-09T05:37:29.571Z,772.00
2022-10-09T05:38:29.559Z,808.00
2022-10-09T05:39:29.537Z,852.00
2022-10-09T05:40:29.527Z,888.00
2022-10-09T05:41:29.514Z,928.00
2022-10-09T05:42:29.500Z,972.00
2022-10-09T05:43:29.488Z,1012.00
2022-10-09T05:44:29.475Z,1056.00
2022-10-09T05:45:29.494Z,1096.00
2022-10-09T05:46:29.447Z,1140.00
2022-10-09T05:47:29.427Z,1184.00
2022-10-09T05:48:29.428Z,1220.00
2022-10-09T05:49:29.429Z,1260.00
2022-10-09T05:50:29.398Z,1304.00
2022-10-09T05:51:29.379Z,1340.00
2022-10-09T05:52:29.406Z,1380.00
2022-10-09T05:53:29.347Z,1424.00
2022-10-09T05:54:29.356Z,1464.00
2022-10-09T05:55:29.337Z,1504.00
2022-10-09T05:56:29.320Z,1544.00
2022-10-09T05:57:29.406Z,1576.00
2022-10-09T05:58:29.298Z,1616.00
2022-10-09T05:59:29.298Z,1652.00
2022-10-09T06:00:29.338Z,1688.00
2022-10-09T06:01:29.335Z,1728.00
2022-10-09T06:02:29.390Z,1764.00
2022-10-09T06:03:29.239Z,1804.00
2022-10-09T06:04:29.225Z,1840.00
2022-10-09T06:05:29.198Z,1876.00
2022-10-09T06:06:29.187Z,1916.00
2022-10-09T06:07:29.199Z,1952.00
2022-10-09T06:08:29.167Z,1984.00
2022-10-09T06:09:29.157Z,2024.00
2022-10-09T06:10:32.483Z,2060.00
2022-10-09T06:11:29.133Z,2088.00
2022-10-09T06:12:29.127Z,2124.00
2022-10-09T06:13:29.110Z,2160.00
2022-10-09T06:14:29.109Z,2192.00
2022-10-09T06:15:29.101Z,2224.00
2022-10-09T06:16:29.118Z,2260.00
2022-10-09T06:17:29.057Z,2288.00
2022-10-09T06:18:29.038Z,2324.00
2022-10-09T06:19:29.037Z,2356.00
2022-10-09T06:20:29.209Z,2384.00
2022-10-09T06:21:28.998Z,2412.00
2022-10-09T06:22:29.015Z,2440.00
2022-10-09T06:23:28.966Z,2472.00
2022-10-09T06:24:29.594Z,2508.00
2022-10-09T06:25:28.954Z,2532.00
2022-10-09T06:26:28.935Z,2564.00
2022-10-09T06:27:28.926Z,2592.00
2022-10-09T06:28:28.937Z,2620.00
2022-10-09T06:29:28.896Z,2648.00
2022-10-09T06:30:29.061Z,2680.00
2022-10-09T06:31:28.941Z,2712.00
2022-10-09T06:32:28.870Z,2740.00
2022-10-09T06:33:28.848Z,2768.00
2022-10-09T06:34:28.837Z,2796.00
2022-10-09T06:35:28.828Z,2820.00
2022-10-09T06:36:28.813Z,2848.00
2022-10-09T06:37:28.794Z,2872.00
2022-10-09T06:38:28.786Z,2900.00
2022-10-09T06:39:28.764Z,2924.00
2022-10-09T06:40:28.789Z,2948.00
2022-10-09T06:41:28.737Z,2968.00
2022-10-09T06:42:28.733Z,2992.00
2022-10-09T06:43:28.715Z,3012.00
2022-10-09T06:44:28.708Z,3036.00
2022-10-09T06:45:28.702Z,3056.00
2022-10-09T06:46:28.750Z,3068.00
2022-10-09T06:47:28.666Z,3088.00
2022-10-09T06:48:28.658Z,3096.00
2022-10-09T06:49:28.650Z,3120.00
2022-10-09T06:50:28.637Z,3128.00
2022-10-09T06:51:28.618Z,3140.00
2022-10-09T06:52:28.615Z,3112.00
2022-10-09T06:53:28.596Z,3144.00
2022-10-09T06:54:28.583Z,3060.00
2022-10-09T06:55:28.893Z,3100.00
2022-10-09T06:56:28.548Z,3172.00
2022-10-09T06:57:28.536Z,3236.00
2022-10-09T06:58:28.526Z,3220.00
2022-10-09T06:59:28.555Z,3116.00
2022-10-09T07:00:28.507Z,3172.00
2022-10-09T07:01:28.553Z,3368.00
2022-10-09T07:02:28.569Z,3388.00
2022-10-09T07:03:28.470Z,3324.00
2022-10-09T07:04:28.456Z,3236.00
2022-10-09T07:05:28.447Z,3308.00
2022-10-09T07:06:28.428Z,3348.00
2022-10-09T07:07:28.427Z,3380.00
2022-10-09T07:08:28.394Z,3416.00
2022-10-09T07:09:28.397Z,3488.00
2022-10-09T07:10:28.419Z,3616.00
2022-10-09T07:11:28.356Z,3696.00
2022-10-09T07:12:28.337Z,3720.00
2022-10-09T07:13:28.347Z,3728.00
2022-10-09T07:14:28.305Z,3764.00
2022-10-09T07:15:28.315Z,3784.00
2022-10-09T07:16:28.403Z,3812.00
2022-10-09T07:17:28.288Z,3836.00
2022-10-09T07:18:28.306Z,3844.00
2022-10-09T07:19:28.276Z,3872.00
2022-10-09T07:20:28.249Z,3892.00
2022-10-09T07:21:28.238Z,3896.00
2022-10-09T07:22:28.222Z,3908.00
2022-10-09T07:23:28.236Z,3920.00
2022-10-09T07:24:28.186Z,3916.00
2022-10-09T07:25:28.177Z,3912.00
2022-10-09T07:26:28.155Z,3896.00
2022-10-09T07:27:35.158Z,3912.00
2022-10-09T07:28:28.161Z,3908.00
2022-10-09T07:29:28.149Z,3900.00
2022-10-09T07:30:28.182Z,3900.00
2022-10-09T07:31:28.189Z,3904.00
2022-10-09T07:32:28.388Z,3904.00
2022-10-09T07:33:28.081Z,3904.00
2022-10-09T07:34:28.088Z,3908.00
2022-10-09T07:35:28.061Z,3920.00
2022-10-09T07:36:28.032Z,3928.00
2022-10-09T07:37:28.031Z,3932.00
2022-10-09T07:38:27.998Z,3940.00
2022-10-09T07:39:28.008Z,3952.00
2022-10-09T07:40:28.000Z,3972.00
2022-10-09T07:41:28.031Z,3984.00
2022-10-09T07:42:27.988Z,3984.00
2022-10-09T07:43:27.950Z,4020.00
2022-10-09T07:44:27.939Z,4028.00
2022-10-09T07:45:27.952Z,4040.00
2022-10-09T07:46:33.008Z,4060.00
2022-10-09T07:47:28.932Z,4068.00
2022-10-09T07:48:27.882Z,4072.00
2022-10-09T07:49:27.958Z,4072.00
2022-10-09T07:50:27.853Z,4000.00
2022-10-09T07:51:27.847Z,4088.00
2022-10-09T07:52:27.849Z,4088.00
2022-10-09T07:53:29.023Z,4096.00
2022-10-09T07:54:27.818Z,4084.00
2022-10-09T07:55:27.790Z,4072.00
2022-10-09T07:56:27.779Z,4048.00
2022-10-09T07:57:27.778Z,4056.00
2022-10-09T07:58:27.781Z,4048.00
2022-10-09T07:59:27.750Z,4032.00
2022-10-09T08:00:27.731Z,4012.00
2022-10-09T08:01:27.784Z,4004.00
2022-10-09T08:02:27.752Z,3988.00
2022-10-09T08:03:27.688Z,3972.00
2022-10-09T08:04:27.680Z,3960.00
2022-10-09T08:05:27.661Z,3944.00
2022-10-09T08:06:27.660Z,3920.00
2022-10-09T08:07:31.355Z,3900.00
2022-10-09T08:08:28.618Z,3852.00
2022-10-09T08:09:27.638Z,3892.00
2022-10-09T08:10:27.602Z,3844.00
2022-10-09T08:11:27.591Z,3936.00
2022-10-09T08:12:27.582Z,3940.00
2022-10-09T08:13:27.570Z,3928.00
2022-10-09T08:14:27.562Z,3872.00
2022-10-09T08:15:27.568Z,3956.00
2022-10-09T08:16:27.530Z,3964.00
2022-10-09T08:17:27.543Z,3912.00
2022-10-09T08:18:27.490Z,3908.00
2022-10-09T08:19:27.490Z,3960.00
2022-10-09T08:20:27.463Z,3980.00
2022-10-09T08:21:27.458Z,3976.00
2022-10-09T08:22:27.431Z,4012.00
2022-10-09T08:23:27.429Z,4004.00
2022-10-09T08:24:27.412Z,4004.00
2022-10-09T08:25:27.421Z,4004.00
2022-10-09T08:26:27.392Z,4004.00
2022-10-09T08:27:27.392Z,3996.00
2022-10-09T08:28:27.417Z,3976.00
2022-10-09T08:29:27.362Z,4004.00
2022-10-09T08:30:27.341Z,3996.00
2022-10-09T08:31:27.437Z,3956.00
2022-10-09T08:32:27.313Z,3828.00
2022-10-09T08:33:27.302Z,3864.00
2022-10-09T08:34:27.309Z,3804.00
2022-10-09T08:35:29.890Z,3828.00
2022-10-09T08:36:28.260Z,3908.00
2022-10-09T08:37:27.249Z,3916.00
2022-10-09T08:38:46.123Z,3976.00
2022-10-09T08:39:28.229Z,3912.00
2022-10-09T08:40:27.201Z,3928.00
2022-10-09T08:41:27.219Z,3952.00
2022-10-09T08:42:27.184Z,4024.00
2022-10-09T08:43:27.219Z,4076.00
2022-10-09T08:44:27.273Z,4108.00
2022-10-09T08:45:27.172Z,4124.00
2022-10-09T08:46:27.154Z,4136.00
2022-10-09T08:47:27.131Z,4152.00
2022-10-09T08:48:27.103Z,4160.00
2022-10-09T08:49:27.134Z,4168.00
2022-10-09T08:50:27.080Z,4180.00
2022-10-09T08:51:27.073Z,4184.00
2022-10-09T08:52:27.074Z,4196.00
2022-10-09T08:53:27.050Z,4204.00
2022-10-09T08:54:27.024Z,4212.00
2022-10-09T08:55:27.012Z,4224.00
2022-10-09T08:56:27.016Z,4232.00
2022-10-09T08:57:27.003Z,4244.00
2022-10-09T08:58:26.997Z,4252.00
2022-10-09T08:59:26.967Z,4256.00
2022-10-09T09:00:26.983Z,4260.00
2022-10-09T09:01:27.001Z,4276.00
2022-10-09T09:02:26.990Z,4284.00
2022-10-09T09:03:26.922Z,4284.00
2022-10-09T09:04:26.904Z,4268.00
2022-10-09T09:05:26.894Z,4284.00
2022-10-09T09:06:26.904Z,4308.00
2022-10-09T09:07:26.866Z,4336.00
2022-10-09T09:08:26.866Z,4348.00
2022-10-09T09:09:26.852Z,4356.00
2022-10-09T09:10:26.824Z,4368.00
2022-10-09T09:11:26.834Z,4372.00
2022-10-09T09:12:26.796Z,4368.00
2022-10-09T09:13:26.805Z,4380.00
2022-10-09T09:14:26.787Z,4364.00
2022-10-09T09:15:26.763Z,4376.00
2022-10-09T09:16:26.811Z,4400.00
2022-10-09T09:17:26.737Z,4408.00
2022-10-09T09:18:26.715Z,4400.00
2022-10-09T09:19:26.706Z,4404.00
2022-10-09T09:20:26.724Z,4396.00
2022-10-09T09:21:26.682Z,4404.00
2022-10-09T09:22:26.707Z,4428.00
2022-10-09T09:23:26.656Z,4412.00
2022-10-09T09:24:26.636Z,4404.00
2022-10-09T09:25:26.635Z,4448.00
2022-10-09T09:26:26.677Z,4444.00
2022-10-09T09:27:26.597Z,4456.00
2022-10-09T09:28:26.622Z,4464.00
2022-10-09T09:29:26.616Z,4464.00
2022-10-09T09:30:26.625Z,4460.00
2022-10-09T09:31:26.588Z,4480.00
2022-10-09T09:32:26.535Z,4476.00
2022-10-09T09:33:26.523Z,4472.00
2022-10-09T09:34:26.503Z,4476.00
2022-10-09T09:35:26.502Z,4468.00
2022-10-09T09:36:26.476Z,4456.00
2022-10-09T09:37:26.467Z,4476.00
2022-10-09T09:38:26.467Z,4428.00
2022-10-09T09:40:46.720Z,4568.00
2022-10-09T09:41:27.424Z,4572.00
2022-10-09T09:42:26.432Z,4576.00
2022-10-09T09:43:26.401Z,4588.00
2022-10-09T09:44:26.385Z,4588.00
2022-10-09T09:45:26.383Z,4604.00
2022-10-09T09:46:26.370Z,4584.00
2022-10-09T09:47:26.346Z,4612.00
2022-10-09T09:48:26.326Z,4632.00
2022-10-09T09:49:26.318Z,4648.00
2022-10-09T09:50:46.706Z,4644.00
2022-10-09T09:51:28.823Z,4656.00
2022-10-09T09:52:26.266Z,4660.00
2022-10-09T09:53:26.267Z,4672.00
2022-10-09T09:54:26.258Z,4688.00
2022-10-09T09:55:26.260Z,4708.00
2022-10-09T09:56:26.258Z,4720.00
2022-10-09T09:57:26.220Z,4736.00
2022-10-09T09:58:26.207Z,4740.00
2022-10-09T09:59:26.199Z,4752.00
2022-10-09T10:00:26.180Z,4764.00
2022-10-09T10:01:26.228Z,4776.00
2022-10-09T10:02:26.259Z,4792.00
2022-10-09T10:03:26.127Z,4816.00
2022-10-09T10:04:26.122Z,4752.00
2022-10-09T10:05:26.108Z,4804.00
2022-10-09T10:06:26.097Z,4820.00
2022-10-09T10:07:26.099Z,4812.00
2022-10-09T10:08:26.074Z,4820.00
2022-10-09T10:09:26.071Z,4824.00
2022-10-09T10:10:26.126Z,4840.00
2022-10-09T10:11:26.030Z,4852.00
2022-10-09T10:12:26.009Z,4856.00
2022-10-09T10:13:26.015Z,4864.00
2022-10-09T10:14:25.999Z,4880.00
2022-10-09T10:15:25.979Z,4896.00
2022-10-09T10:16:26.049Z,3164.00
2022-10-09T10:17:25.948Z,4864.00
2022-10-09T10:18:25.947Z,4860.00
2022-10-09T10:19:25.932Z,4880.00
2022-10-09T10:20:25.929Z,4960.00
2022-10-09T10:21:25.909Z,4988.00
2022-10-09T10:22:25.907Z,4932.00
2022-10-09T10:23:25.911Z,5016.00
2022-10-09T10:24:25.981Z,5044.00
2022-10-09T10:25:25.850Z,5192.00
2022-10-09T10:26:25.841Z,5256.00
2022-10-09T10:27:25.821Z,5292.00
2022-10-09T10:28:25.830Z,5216.00
2022-10-09T10:29:25.801Z,5344.00
2022-10-09T10:30:25.791Z,5520.00
2022-10-09T10:31:25.833Z,5620.00
2022-10-09T10:32:25.750Z,4436.00
2022-10-09T10:33:25.747Z,4648.00
2022-10-09T10:34:25.724Z,6608.00
2022-10-09T10:35:25.731Z,5056.00
2022-10-09T10:36:25.714Z,6792.00
2022-10-09T10:37:25.692Z,4900.00
2022-10-09T10:38:25.681Z,4908.00
2022-10-09T10:39:25.673Z,4984.00
2022-10-09T10:40:25.657Z,5092.00
2022-10-09T10:41:25.673Z,5260.00
2022-10-09T10:42:25.612Z,5384.00
2022-10-09T10:43:25.613Z,5380.00
2022-10-09T10:44:25.581Z,5140.00
2022-10-09T10:45:25.582Z,4732.00
2022-10-09T10:46:25.609Z,4652.00
2022-10-09T10:47:25.552Z,4744.00
2022-10-09T10:48:25.534Z,4808.00
2022-10-09T10:49:25.523Z,4944.00
2022-10-09T10:50:25.525Z,5100.00
2022-10-09T10:51:25.534Z,4984.00
2022-10-09T10:52:25.509Z,4704.00
2022-10-09T10:53:25.484Z,4696.00
2022-10-09T10:54:25.494Z,4676.00
2022-10-09T10:55:25.463Z,4528.00
2022-10-09T10:56:25.445Z,4396.00
2022-10-09T10:57:25.474Z,4384.00
2022-10-09T10:58:25.404Z,4420.00
2022-10-09T10:59:25.394Z,4656.00
2022-10-09T11:00:25.385Z,6268.00
2022-10-09T11:01:25.508Z,4580.00
2022-10-09T11:02:25.375Z,4284.00
2022-10-09T11:03:25.449Z,4368.00
2022-10-09T11:04:25.332Z,4488.00
2022-10-09T11:05:25.324Z,5736.00
2022-10-09T11:06:25.315Z,4844.00
2022-10-09T11:07:25.316Z,4512.00
2022-10-09T11:08:25.286Z,4976.00
2022-10-09T11:09:25.284Z,4856.00
2022-10-09T11:10:25.255Z,4576.00
2022-10-09T11:11:25.250Z,4600.00
2022-10-09T11:12:43.739Z,4716.00
2022-10-09T11:13:26.223Z,4568.00
2022-10-09T11:14:25.229Z,5404.00
2022-10-09T11:15:25.206Z,5520.00
2022-10-09T11:16:25.290Z,4444.00
2022-10-09T11:17:25.211Z,4384.00
2022-10-09T11:18:25.183Z,4436.00
2022-10-09T11:19:25.147Z,4436.00
2022-10-09T11:20:25.169Z,4476.00
2022-10-09T11:21:25.118Z,4520.00
2022-10-09T11:22:25.120Z,4464.00
2022-10-09T11:23:25.086Z,4304.00
2022-10-09T11:24:25.078Z,4188.00
2022-10-09T11:25:25.054Z,4144.00
2022-10-09T11:26:25.056Z,4560.00
2022-10-09T11:27:25.035Z,6128.00
2022-10-09T11:28:25.075Z,4864.00
2022-10-09T11:29:25.118Z,4772.00
2022-10-09T11:30:25.009Z,5188.00
2022-10-09T11:31:25.043Z,5180.00
2022-10-09T11:32:24.986Z,6388.00
2022-10-09T11:33:24.978Z,6704.00
2022-10-09T11:34:24.958Z,6844.00
2022-10-09T11:35:24.959Z,6728.00
2022-10-09T11:36:24.931Z,6616.00
2022-10-09T11:37:24.917Z,6596.00
2022-10-09T11:38:24.896Z,6604.00
2022-10-09T11:39:24.883Z,6684.00
2022-10-09T11:40:24.866Z,6452.00
2022-10-09T11:41:24.848Z,6340.00
2022-10-09T11:42:24.867Z,6260.00
2022-10-09T11:43:24.827Z,6260.00
2022-10-09T11:44:24.827Z,6276.00
2022-10-09T11:45:24.863Z,6292.00
2022-10-09T11:46:24.817Z,6368.00
2022-10-09T11:47:24.779Z,6352.00
2022-10-09T11:48:24.861Z,6304.00
2022-10-09T11:49:24.750Z,6320.00
2022-10-09T11:50:24.800Z,6316.00
2022-10-09T11:51:24.733Z,6340.00
2022-10-09T11:52:24.711Z,6396.00
2022-10-09T11:53:24.700Z,4600.00
2022-10-09T11:54:24.688Z,4624.00
2022-10-09T11:55:24.669Z,4696.00
2022-10-09T11:56:24.658Z,4940.00
2022-10-09T11:57:24.658Z,5964.00
2022-10-09T11:58:24.630Z,6556.00
2022-10-09T11:59:24.618Z,4900.00
2022-10-09T12:00:24.601Z,4616.00
2022-10-09T12:01:24.634Z,4660.00
2022-10-09T12:02:24.626Z,4836.00
2022-10-09T12:03:24.562Z,5372.00
2022-10-09T12:04:43.234Z,4844.00
2022-10-09T12:05:25.541Z,6204.00
2022-10-09T12:06:24.530Z,6280.00
2022-10-09T12:07:24.720Z,6256.00
2022-10-09T12:08:24.503Z,6132.00
2022-10-09T12:09:24.494Z,6080.00
2022-10-09T12:10:24.480Z,6004.00
2022-10-09T12:11:24.452Z,5960.00
2022-10-09T12:12:24.462Z,5916.00
2022-10-09T12:13:24.442Z,5880.00
2022-10-09T12:14:24.431Z,5904.00
2022-10-09T12:15:24.413Z,6060.00
2022-10-09T12:16:24.457Z,5416.00
2022-10-09T12:17:24.403Z,5944.00
2022-10-09T12:18:24.362Z,5908.00
2022-10-09T12:19:24.352Z,5904.00
2022-10-09T12:20:24.333Z,6012.00
2022-10-09T12:21:24.321Z,5684.00
2022-10-09T12:22:24.322Z,5512.00
2022-10-09T12:23:27.019Z,4948.00
2022-10-09T12:24:24.287Z,4952.00
2022-10-09T12:25:24.271Z,6056.00
2022-10-09T12:26:24.274Z,6084.00
2022-10-09T12:27:24.264Z,5784.00
2022-10-09T12:28:24.301Z,4264.00
2022-10-09T12:29:24.224Z,4168.00
2022-10-09T12:30:24.215Z,4060.00
2022-10-09T12:31:24.228Z,4052.00
2022-10-09T12:32:24.186Z,4164.00
2022-10-09T12:33:24.204Z,5660.00
2022-10-09T12:34:24.152Z,6228.00
2022-10-09T12:35:24.184Z,6444.00